createdAt,value
2017-09-28T00:00:11.801Z,1020.71
2017-09-28T00:01:24.322Z,1020.73
2017-09-28T00:02:36.558Z,1020.72
2017-09-28T00:03:49.063Z,1020.76
2017-09-28T00:05:01.274Z,1020.73
2017-09-28T00:06:13.180Z,1020.72
2017-09-28T00:07:25.748Z,1020.72
2017-09-28T00:08:37.943Z,1020.69
2017-09-28T00:09:50.140Z,1020.68
2017-09-28T00:11:02.660Z,1020.79
2017-09-28T00:12:15.189Z,1020.7
2017-09-28T00:13:27.403Z,1020.69
2017-09-28T00:14:39.922Z,1020.61
2017-09-28T00:15:52.422Z,1020.68
2017-09-28T00:17:04.639Z,1020.63
2017-09-28T00:18:17.185Z,1020.62
2017-09-28T00:19:29.679Z,1020.62
2017-09-28T00:20:42.200Z,1020.62
2017-09-28T00:21:54.697Z,1020.65
2017-09-28T00:23:07.223Z,1020.62
2017-09-28T00:24:19.713Z,1020.63
2017-09-28T00:25:32.200Z,1020.66
2017-09-28T00:26:44.706Z,1020.64
2017-09-28T00:27:56.900Z,1020.69
2017-09-28T00:29:09.421Z,1020.69
2017-09-28T00:30:21.619Z,1020.67
2017-09-28T00:31:34.153Z,1020.67
2017-09-28T00:32:46.351Z,1020.66
2017-09-28T00:33:58.869Z,1020.68
2017-09-28T00:35:10.776Z,1020.64
2017-09-28T00:36:23.285Z,1020.66
2017-09-28T00:37:35.189Z,1020.7
2017-09-28T00:38:47.687Z,1020.69
2017-09-28T00:40:00.200Z,1020.7
2017-09-28T00:41:12.403Z,1020.65
2017-09-28T00:42:24.916Z,1020.68
2017-09-28T00:43:37.417Z,1020.68
2017-09-28T00:44:49.913Z,1020.69
2017-09-28T00:46:02.126Z,1020.66
2017-09-28T00:47:14.057Z,1020.65
2017-09-28T00:48:26.567Z,1020.66
2017-09-28T00:49:38.771Z,1020.62
2017-09-28T00:50:51.269Z,1020.61
2017-09-28T00:52:03.787Z,1020.58
2017-09-28T00:53:16.285Z,1020.59
2017-09-28T00:54:28.770Z,1020.61
2017-09-28T00:55:40.953Z,1020.58
2017-09-28T00:56:52.839Z,1020.57
2017-09-28T00:58:05.041Z,1020.52
2017-09-28T00:59:17.538Z,1020.53
2017-09-28T01:00:29.132Z,1020.59
2017-09-28T01:01:41.021Z,1020.56
2017-09-28T01:02:53.240Z,1020.53
2017-09-28T01:04:05.742Z,1020.58
2017-09-28T01:05:17.920Z,1020.6
2017-09-28T01:06:30.128Z,1020.59
2017-09-28T01:07:42.333Z,1020.6
2017-09-28T01:08:54.208Z,1020.59
2017-09-28T01:10:06.424Z,1020.59
2017-09-28T01:11:18.594Z,1020.61
2017-09-28T01:12:31.113Z,1020.58
2017-09-28T01:13:43.335Z,1020.6
2017-09-28T01:14:55.855Z,1020.67
2017-09-28T01:16:07.753Z,1020.62
2017-09-28T01:17:20.248Z,1020.62
2017-09-28T01:18:32.444Z,1020.63
2017-09-28T01:19:44.961Z,1020.61
2017-09-28T01:20:57.460Z,1020.64
2017-09-28T01:22:10.006Z,1020.66
2017-09-28T01:23:22.219Z,1020.61
2017-09-28T01:24:34.720Z,1020.67
2017-09-28T01:25:47.218Z,1020.63
2017-09-28T01:26:59.711Z,1020.63
2017-09-28T01:28:11.598Z,1020.59
2017-09-28T01:29:23.803Z,1020.62
2017-09-28T01:30:36.292Z,1020.61
2017-09-28T01:31:48.193Z,1020.54
2017-09-28T01:33:00.398Z,1020.55
2017-09-28T01:34:12.909Z,1020.54
2017-09-28T01:35:25.430Z,1020.57
2017-09-28T01:36:37.626Z,1020.59
2017-09-28T01:37:50.121Z,1020.61
2017-09-28T01:39:02.320Z,1020.58
2017-09-28T01:40:14.838Z,1020.56
2017-09-28T01:41:27.336Z,1020.55
2017-09-28T01:42:39.821Z,1020.52
2017-09-28T01:43:52.002Z,1020.53
2017-09-28T01:45:04.501Z,1020.53
2017-09-28T01:46:16.720Z,1020.45
2017-09-28T01:47:29.231Z,1020.49
2017-09-28T01:48:41.733Z,1020.43
2017-09-28T01:49:53.930Z,1020.49
2017-09-28T01:51:06.145Z,1020.52
2017-09-28T01:52:18.664Z,1020.46
2017-09-28T01:53:31.189Z,1020.49
2017-09-28T01:54:43.711Z,1020.53
2017-09-28T01:55:56.209Z,1020.53
2017-09-28T01:57:08.704Z,1020.58
2017-09-28T01:58:20.289Z,1020.54
2017-09-28T01:59:32.787Z,1020.55
2017-09-28T02:00:44.989Z,1020.54
2017-09-28T02:01:57.187Z,1020.52
2017-09-28T02:03:09.372Z,1020.48
2017-09-28T02:04:21.601Z,1020.49
2017-09-28T02:05:33.789Z,1020.44
2017-09-28T02:06:45.985Z,1020.51
2017-09-28T02:07:57.857Z,1020.5
2017-09-28T02:09:10.358Z,1020.45
2017-09-28T02:10:22.875Z,1020.46
2017-09-28T02:11:35.367Z,1020.45
2017-09-28T02:12:47.847Z,1020.46
2017-09-28T02:14:00.343Z,1020.42
2017-09-28T02:15:12.263Z,1020.41
2017-09-28T02:16:24.160Z,1020.38
2017-09-28T02:17:36.670Z,1020.37
2017-09-28T02:18:48.550Z,1020.38
2017-09-28T02:20:00.462Z,1020.32
2017-09-28T02:21:12.921Z,1020.34
2017-09-28T02:22:25.113Z,1020.32
2017-09-28T02:23:37.007Z,1020.3
2017-09-28T02:24:49.222Z,1020.3
2017-09-28T02:26:01.125Z,1020.29
2017-09-28T02:27:13.014Z,1020.32
2017-09-28T02:28:25.483Z,1020.32
2017-09-28T02:29:37.384Z,1020.31
2017-09-28T02:30:49.881Z,1020.28
2017-09-28T02:32:02.418Z,1020.29
2017-09-28T02:33:14.647Z,1020.27
2017-09-28T02:34:26.516Z,1020.29
2017-09-28T02:35:39.013Z,1020.3
2017-09-28T02:36:51.511Z,1020.3
2017-09-28T02:38:03.405Z,1020.31
2017-09-28T02:39:15.580Z,1020.34
2017-09-28T02:40:27.770Z,1020.31
2017-09-28T02:41:40.271Z,1020.34
2017-09-28T02:42:52.756Z,1020.29
2017-09-28T02:44:04.960Z,1020.3
2017-09-28T02:45:16.847Z,1020.26
2017-09-28T02:46:29.374Z,1020.27
2017-09-28T02:47:40.975Z,1020.24
2017-09-28T02:48:52.869Z,1020.18
2017-09-28T02:50:05.086Z,1020.2
2017-09-28T02:51:17.585Z,1020.19
2017-09-28T02:52:30.097Z,1020.27
2017-09-28T02:53:42.625Z,1020.22
2017-09-28T02:54:54.845Z,1020.25
2017-09-28T02:56:07.065Z,1020.25
2017-09-28T02:57:19.562Z,1020.24
2017-09-28T02:58:32.072Z,1020.25
2017-09-28T02:59:44.577Z,1020.24
2017-09-28T03:00:56.772Z,1020.23
2017-09-28T03:02:09.268Z,1020.23
2017-09-28T03:03:21.762Z,1020.25
2017-09-28T03:04:34.284Z,1020.26
2017-09-28T03:05:46.484Z,1020.24
2017-09-28T03:06:59.000Z,1020.29
2017-09-28T03:08:11.174Z,1020.3
2017-09-28T03:09:23.359Z,1020.26
2017-09-28T03:10:35.840Z,1020.28
2017-09-28T03:11:48.036Z,1020.3
2017-09-28T03:12:59.938Z,1020.3
2017-09-28T03:14:12.449Z,1020.35
2017-09-28T03:15:24.946Z,1020.32
2017-09-28T03:16:36.867Z,1020.36
2017-09-28T03:17:49.054Z,1020.35
2017-09-28T03:19:00.948Z,1020.29
2017-09-28T03:20:13.455Z,1020.33
2017-09-28T03:21:25.949Z,1020.36
2017-09-28T03:22:37.545Z,1020.36
2017-09-28T03:23:50.058Z,1020.37
2017-09-28T03:25:02.576Z,1020.34
2017-09-28T03:26:14.799Z,1020.36
2017-09-28T03:27:26.993Z,1020.39
2017-09-28T03:28:38.891Z,1020.37
2017-09-28T03:29:51.092Z,1020.32
2017-09-28T03:31:03.613Z,1020.34
2017-09-28T03:32:16.101Z,1020.35
2017-09-28T03:33:28.621Z,1020.32
2017-09-28T03:34:40.801Z,1020.33
2017-09-28T03:35:53.345Z,1020.31
2017-09-28T03:37:05.786Z,1020.26
2017-09-28T03:38:17.980Z,1020.33
2017-09-28T03:39:30.489Z,1020.31
2017-09-28T03:40:43.005Z,1020.33
2017-09-28T03:41:55.499Z,1020.35
2017-09-28T03:43:07.718Z,1020.35
2017-09-28T03:44:20.242Z,1020.35
2017-09-28T03:45:32.760Z,1020.41
2017-09-28T03:46:45.258Z,1020.37
2017-09-28T03:47:57.756Z,1020.36
2017-09-28T03:49:10.250Z,1020.37
2017-09-28T03:50:22.770Z,1020.39
2017-09-28T03:51:34.991Z,1020.41
2017-09-28T03:52:47.186Z,1020.4
2017-09-28T03:53:59.696Z,1020.4
2017-09-28T03:55:12.170Z,1020.42
2017-09-28T03:56:24.699Z,1020.44
2017-09-28T03:57:37.219Z,1020.45
2017-09-28T03:58:49.412Z,1020.5
2017-09-28T04:00:01.934Z,1020.46
2017-09-28T04:01:14.420Z,1020.46
2017-09-28T04:02:26.925Z,1020.47
2017-09-28T04:03:39.422Z,1020.42
2017-09-28T04:04:51.918Z,1020.45
2017-09-28T04:06:04.153Z,1020.46
2017-09-28T04:07:16.362Z,1020.47
2017-09-28T04:08:28.896Z,1020.47
2017-09-28T04:09:41.674Z,1020.49
2017-09-28T04:10:53.561Z,1020.49
2017-09-28T04:12:05.766Z,1020.51
2017-09-28T04:13:18.262Z,1020.53
2017-09-28T04:14:30.760Z,1020.5
2017-09-28T04:15:43.256Z,1020.5
2017-09-28T04:16:55.764Z,1020.48
2017-09-28T04:18:08.271Z,1020.49
2017-09-28T04:19:20.785Z,1020.45
2017-09-28T04:20:33.003Z,1020.43
2017-09-28T04:21:45.199Z,1020.45
2017-09-28T04:22:57.393Z,1020.47
2017-09-28T04:24:09.890Z,1020.48
2017-09-28T04:25:22.397Z,1020.46
2017-09-28T04:26:34.894Z,1020.51
2017-09-28T04:27:47.408Z,1020.51
2017-09-28T04:28:59.608Z,1020.49
2017-09-28T04:30:11.801Z,1020.51
2017-09-28T04:31:24.306Z,1020.48
2017-09-28T04:32:36.822Z,1020.51
2017-09-28T04:33:49.313Z,1020.5
2017-09-28T04:35:01.832Z,1020.52
2017-09-28T04:36:14.054Z,1020.53
2017-09-28T04:37:26.247Z,1020.5
2017-09-28T04:38:38.743Z,1020.52
2017-09-28T04:39:50.914Z,1020.54
2017-09-28T04:41:03.111Z,1020.52
2017-09-28T04:42:15.907Z,1020.53
2017-09-28T04:43:28.403Z,1020.54
2017-09-28T04:44:40.922Z,1020.55
2017-09-28T04:45:53.445Z,1020.58
2017-09-28T04:47:05.639Z,1020.58
2017-09-28T04:48:17.834Z,1020.6
2017-09-28T04:49:29.729Z,1020.64
2017-09-28T04:50:41.326Z,1020.64
2017-09-28T04:51:53.841Z,1020.64
2017-09-28T04:53:06.359Z,1020.64
2017-09-28T04:54:18.840Z,1020.62
2017-09-28T04:55:31.060Z,1020.66
2017-09-28T04:56:42.958Z,1020.64
2017-09-28T04:57:55.450Z,1020.64
2017-09-28T04:59:07.638Z,1020.65
2017-09-28T05:00:20.146Z,1020.66
2017-09-28T05:01:32.338Z,1020.71
2017-09-28T05:02:44.231Z,1020.71
2017-09-28T05:03:56.429Z,1020.67
2017-09-28T05:05:08.949Z,1020.69
2017-09-28T05:06:21.146Z,1020.66
2017-09-28T05:07:33.342Z,1020.68
2017-09-28T05:08:45.605Z,1020.69
2017-09-28T05:09:58.109Z,1020.68
2017-09-28T05:11:10.627Z,1020.68
2017-09-28T05:12:23.125Z,1020.69
2017-09-28T05:13:35.643Z,1020.67
2017-09-28T05:14:47.865Z,1020.72
2017-09-28T05:16:00.377Z,1020.67
2017-09-28T05:17:12.579Z,1020.7
2017-09-28T05:18:25.076Z,1020.72
2017-09-28T05:19:37.575Z,1020.74
2017-09-28T05:20:50.320Z,1020.73
2017-09-28T05:22:02.507Z,1020.75
2017-09-28T05:23:14.701Z,1020.76
2017-09-28T05:24:27.206Z,1020.73
2017-09-28T05:25:39.724Z,1020.78
2017-09-28T05:26:51.599Z,1020.7
2017-09-28T05:28:03.784Z,1020.72
2017-09-28T05:29:15.987Z,1020.77
2017-09-28T05:30:28.484Z,1020.77
2017-09-28T05:31:41.003Z,1020.73
2017-09-28T05:32:53.505Z,1020.76
2017-09-28T05:34:06.018Z,1020.75
2017-09-28T05:35:18.517Z,1020.79
2017-09-28T05:36:31.004Z,1020.8
2017-09-28T05:37:43.565Z,1020.8
2017-09-28T05:38:55.757Z,1020.81
2017-09-28T05:40:07.973Z,1020.83
2017-09-28T05:41:20.463Z,1020.84
2017-09-28T05:42:33.216Z,1020.87
2017-09-28T05:43:45.735Z,1020.89
2017-09-28T05:44:57.930Z,1020.92
2017-09-28T05:46:10.144Z,1020.91
2017-09-28T05:47:22.349Z,1020.89
2017-09-28T05:48:34.847Z,1020.9
2017-09-28T05:49:47.064Z,1020.98
2017-09-28T05:50:59.259Z,1020.94
2017-09-28T05:52:11.771Z,1020.97
2017-09-28T05:53:23.994Z,1020.97
2017-09-28T05:54:36.199Z,1021
2017-09-28T05:55:48.392Z,1020.96
2017-09-28T05:57:00.878Z,1020.97
2017-09-28T05:58:13.082Z,1021
2017-09-28T05:59:25.604Z,1020.99
2017-09-28T06:00:38.124Z,1020.95
2017-09-28T06:01:50.621Z,1020.99
2017-09-28T06:03:03.115Z,1020.95
2017-09-28T06:04:15.613Z,1020.97
2017-09-28T06:05:27.801Z,1020.92
2017-09-28T06:06:40.038Z,1020.96
2017-09-28T06:07:52.549Z,1020.91
2017-09-28T06:09:04.767Z,1020.91
2017-09-28T06:10:16.958Z,1020.88
2017-09-28T06:11:29.152Z,1020.87
2017-09-28T06:12:40.757Z,1020.87
2017-09-28T06:13:53.257Z,1020.91
2017-09-28T06:15:05.453Z,1020.93
2017-09-28T06:16:17.972Z,1020.91
2017-09-28T06:17:30.181Z,1020.9
2017-09-28T06:18:42.384Z,1020.94
2017-09-28T06:19:55.132Z,1020.88
2017-09-28T06:21:07.642Z,1020.9
2017-09-28T06:22:20.173Z,1020.91
2017-09-28T06:23:32.683Z,1020.91
2017-09-28T06:24:44.879Z,1020.93
2017-09-28T06:25:57.359Z,1020.93
2017-09-28T06:27:09.848Z,1021
2017-09-28T06:28:22.348Z,1020.96
2017-09-28T06:29:34.838Z,1021.03
2017-09-28T06:30:47.045Z,1021.04
2017-09-28T06:31:59.586Z,1021.03
2017-09-28T06:33:12.116Z,1021.04
2017-09-28T06:34:24.019Z,1021.03
2017-09-28T06:35:36.498Z,1021
2017-09-28T06:36:48.693Z,1021.02
2017-09-28T06:38:01.190Z,1021.07
2017-09-28T06:39:13.690Z,1021.05
2017-09-28T06:40:25.580Z,1021.08
2017-09-28T06:41:37.778Z,1021.07
2017-09-28T06:42:49.976Z,1021.13
2017-09-28T06:44:02.493Z,1021.11
2017-09-28T06:45:14.980Z,1021.16
2017-09-28T06:46:27.207Z,1021.17
2017-09-28T06:47:39.707Z,1021.22
2017-09-28T06:48:52.252Z,1021.2
2017-09-28T06:50:04.173Z,1021.19
2017-09-28T06:51:16.366Z,1021.17
2017-09-28T06:52:28.538Z,1021.21
2017-09-28T06:53:41.034Z,1021.22
2017-09-28T06:54:53.554Z,1021.19
2017-09-28T06:56:05.452Z,1021.22
2017-09-28T06:57:17.661Z,1021.27
2017-09-28T06:58:29.834Z,1021.23
2017-09-28T06:59:41.728Z,1021.19
2017-09-28T07:00:54.232Z,1021.16
2017-09-28T07:02:06.755Z,1021.21
2017-09-28T07:03:19.198Z,1021.2
2017-09-28T07:04:31.694Z,1021.23
2017-09-28T07:05:43.585Z,1021.2
2017-09-28T07:06:55.809Z,1021.19
2017-09-28T07:08:08.007Z,1021.24
2017-09-28T07:09:19.900Z,1021.18
2017-09-28T07:10:32.099Z,1021.19
2017-09-28T07:11:44.316Z,1021.18
2017-09-28T07:12:56.831Z,1021.23
2017-09-28T07:14:09.308Z,1021.2
2017-09-28T07:15:21.203Z,1021.22
2017-09-28T07:16:33.720Z,1021.27
2017-09-28T07:17:46.297Z,1021.23
2017-09-28T07:18:58.795Z,1021.24
2017-09-28T07:20:10.986Z,1021.26
2017-09-28T07:21:23.484Z,1021.31
2017-09-28T07:22:35.980Z,1021.27
2017-09-28T07:23:47.901Z,1021.29
2017-09-28T07:25:00.113Z,1021.32
2017-09-28T07:26:12.007Z,1021.36
2017-09-28T07:27:24.512Z,1021.34
2017-09-28T07:28:37.031Z,1021.38
2017-09-28T07:29:49.252Z,1021.34
2017-09-28T07:31:01.442Z,1021.31
2017-09-28T07:32:13.637Z,1021.41
2017-09-28T07:33:25.840Z,1021.42
2017-09-28T07:34:38.362Z,1021.43
2017-09-28T07:35:50.872Z,1021.49
2017-09-28T07:37:03.370Z,1021.54
2017-09-28T07:38:14.938Z,1021.52
2017-09-28T07:39:27.469Z,1021.52
2017-09-28T07:40:39.988Z,1021.51
2017-09-28T07:41:51.884Z,1021.52
2017-09-28T07:43:04.071Z,1021.51
2017-09-28T07:44:16.600Z,1021.53
2017-09-28T07:45:29.098Z,1021.49
2017-09-28T07:46:41.616Z,1021.49
2017-09-28T07:47:54.113Z,1021.48
2017-09-28T07:49:06.299Z,1021.5
2017-09-28T07:50:18.482Z,1021.5
2017-09-28T07:51:31.002Z,1021.49
2017-09-28T07:52:43.227Z,1021.49
2017-09-28T07:53:55.734Z,1021.47
2017-09-28T07:55:08.236Z,1021.47
2017-09-28T07:56:20.455Z,1021.46
2017-09-28T07:57:33.205Z,1021.41
2017-09-28T07:58:45.697Z,1021.42
2017-09-28T07:59:57.871Z,1021.39
2017-09-28T08:01:10.058Z,1021.37
2017-09-28T08:02:21.962Z,1021.43
2017-09-28T08:03:34.182Z,1021.36
2017-09-28T08:04:46.693Z,1021.39
2017-09-28T08:05:58.567Z,1021.42
2017-09-28T08:07:10.785Z,1021.4
2017-09-28T08:08:22.961Z,1021.43
2017-09-28T08:09:34.864Z,1021.42
2017-09-28T08:10:47.381Z,1021.44
2017-09-28T08:11:59.279Z,1021.42
2017-09-28T08:13:10.865Z,1021.46
2017-09-28T08:14:23.391Z,1021.52
2017-09-28T08:15:35.581Z,1021.53
2017-09-28T08:16:48.107Z,1021.56
2017-09-28T08:18:00.605Z,1021.53
2017-09-28T08:19:13.066Z,1021.59
2017-09-28T08:20:25.572Z,1021.51
2017-09-28T08:21:37.467Z,1021.55
2017-09-28T08:22:49.654Z,1021.54
2017-09-28T08:24:02.157Z,1021.51
2017-09-28T08:25:13.405Z,1021.51
2017-09-28T08:26:25.616Z,1021.47
2017-09-28T08:27:37.819Z,1021.5
2017-09-28T08:28:50.014Z,1021.5
2017-09-28T08:30:02.534Z,1021.5
2017-09-28T08:31:14.397Z,1021.49
2017-09-28T08:32:26.900Z,1021.51
2017-09-28T08:33:39.090Z,1021.49
2017-09-28T08:34:51.591Z,1021.51
2017-09-28T08:36:03.182Z,1021.46
2017-09-28T08:37:15.076Z,1021.43
2017-09-28T08:38:27.255Z,1021.47
2017-09-28T08:39:39.477Z,1021.5
2017-09-28T08:40:52.023Z,1021.42
2017-09-28T08:42:03.918Z,1021.42
2017-09-28T08:43:15.512Z,1021.43
2017-09-28T08:44:27.704Z,1021.41
2017-09-28T08:45:39.928Z,1021.42
2017-09-28T08:46:52.481Z,1021.42
2017-09-28T08:48:04.670Z,1021.39
2017-09-28T08:49:16.866Z,1021.35
2017-09-28T08:50:28.780Z,1021.35
2017-09-28T08:51:41.309Z,1021.41
2017-09-28T08:52:53.827Z,1021.41
2017-09-28T08:54:05.718Z,1021.39
2017-09-28T08:55:17.917Z,1021.36
2017-09-28T08:56:30.139Z,1021.35
2017-09-28T08:57:42.360Z,1021.35
2017-09-28T08:58:54.629Z,1021.34
2017-09-28T09:00:06.801Z,1021.36
2017-09-28T09:01:19.300Z,1021.35
2017-09-28T09:02:31.493Z,1021.36
2017-09-28T09:03:44.011Z,1021.35
2017-09-28T09:04:56.510Z,1021.34
2017-09-28T09:06:08.404Z,1021.39
2017-09-28T09:07:20.619Z,1021.36
2017-09-28T09:08:33.126Z,1021.3
2017-09-28T09:09:45.334Z,1021.31
2017-09-28T09:10:57.530Z,1021.31
2017-09-28T09:12:09.732Z,1021.28
2017-09-28T09:13:22.229Z,1021.26
2017-09-28T09:14:34.450Z,1021.2
2017-09-28T09:15:46.643Z,1021.18
2017-09-28T09:16:59.144Z,1021.2
2017-09-28T09:18:11.337Z,1021.18
2017-09-28T09:19:23.883Z,1021.15
2017-09-28T09:20:36.404Z,1021.18
2017-09-28T09:21:48.923Z,1021.19
2017-09-28T09:23:01.420Z,1021.23
2017-09-28T09:24:13.938Z,1021.25
2017-09-28T09:25:26.466Z,1021.27
2017-09-28T09:26:38.372Z,1021.24
2017-09-28T09:27:50.574Z,1021.29
2017-09-28T09:29:03.070Z,1021.3
2017-09-28T09:30:15.566Z,1021.32
2017-09-28T09:31:27.765Z,1021.32
2017-09-28T09:32:39.984Z,1021.31
2017-09-28T09:33:52.480Z,1021.36
2017-09-28T09:35:04.973Z,1021.32
2017-09-28T09:36:17.496Z,1021.27
2017-09-28T09:37:29.692Z,1021.24
2017-09-28T09:38:41.603Z,1021.23
2017-09-28T09:39:53.511Z,1021.19
2017-09-28T09:41:05.705Z,1021.18
2017-09-28T09:42:17.929Z,1021.18
2017-09-28T09:43:30.120Z,1021.19
2017-09-28T09:44:42.315Z,1021.2
2017-09-28T09:45:54.812Z,1021.23
2017-09-28T09:47:07.013Z,1021.2
2017-09-28T09:48:19.228Z,1021.15
2017-09-28T09:49:31.425Z,1021.18
2017-09-28T09:50:43.644Z,1021.13
2017-09-28T09:51:56.143Z,1021.06
2017-09-28T09:53:08.358Z,1021.11
2017-09-28T09:54:20.860Z,1021.09
2017-09-28T09:55:33.075Z,1021.08
2017-09-28T09:56:45.571Z,1021.11
2017-09-28T09:57:57.773Z,1021.09
2017-09-28T09:59:10.014Z,1021.08
2017-09-28T10:00:22.210Z,1021.07
2017-09-28T10:01:34.435Z,1021.04
2017-09-28T10:02:46.927Z,1021.01
2017-09-28T10:03:59.422Z,1020.97
2017-09-28T10:05:11.616Z,1020.96
2017-09-28T10:06:24.115Z,1020.98
2017-09-28T10:07:36.607Z,1020.99
2017-09-28T10:08:48.805Z,1020.99
2017-09-28T10:10:00.718Z,1021.01
2017-09-28T10:11:12.969Z,1021.05
2017-09-28T10:12:25.172Z,1021.03
2017-09-28T10:13:37.686Z,1021.02
2017-09-28T10:14:50.184Z,1021
2017-09-28T10:16:02.703Z,1021.02
2017-09-28T10:17:13.998Z,1020.97
2017-09-28T10:18:26.145Z,1021
2017-09-28T10:19:38.038Z,1021.01
2017-09-28T10:20:50.237Z,1021
2017-09-28T10:22:02.780Z,1021.03
2017-09-28T10:23:15.302Z,1021
2017-09-28T10:24:27.822Z,1021.06
2017-09-28T10:25:39.741Z,1021.1
2017-09-28T10:26:51.938Z,1021.11
2017-09-28T10:28:04.136Z,1021.09
2017-09-28T10:29:16.031Z,1021.13
2017-09-28T10:30:28.527Z,1021.12
2017-09-28T10:31:41.045Z,1021.13
2017-09-28T10:32:53.551Z,1021.15
2017-09-28T10:34:06.064Z,1021.1
2017-09-28T10:35:18.584Z,1021.11
2017-09-28T10:36:30.777Z,1021.17
2017-09-28T10:37:42.976Z,1021.14
2017-09-28T10:38:55.197Z,1021.14
2017-09-28T10:40:07.416Z,1021.18
2017-09-28T10:41:19.613Z,1021.14
2017-09-28T10:42:32.106Z,1021.12
2017-09-28T10:43:44.005Z,1021.13
2017-09-28T10:44:55.925Z,1021.14
2017-09-28T10:46:08.470Z,1021.17
2017-09-28T10:47:20.366Z,1021.15
2017-09-28T10:48:32.883Z,1021.22
2017-09-28T10:49:45.075Z,1021.22
2017-09-28T10:50:57.300Z,1021.25
2017-09-28T10:52:09.174Z,1021.25
2017-09-28T10:53:21.384Z,1021.25
2017-09-28T10:54:33.888Z,1021.28
2017-09-28T10:55:46.102Z,1021.28
2017-09-28T10:56:58.606Z,1021.28
2017-09-28T10:58:10.825Z,1021.26
2017-09-28T10:59:23.023Z,1021.28
2017-09-28T11:00:35.533Z,1021.24
2017-09-28T11:01:48.064Z,1021.23
2017-09-28T11:03:00.600Z,1021.2
2017-09-28T11:04:12.203Z,1021.24
2017-09-28T11:05:24.391Z,1021.22
2017-09-28T11:06:36.918Z,1021.24
2017-09-28T11:07:49.117Z,1021.24
2017-09-28T11:09:01.361Z,1021.25
2017-09-28T11:10:13.861Z,1021.23
2017-09-28T11:11:26.052Z,1021.22
2017-09-28T11:12:38.256Z,1021.23
2017-09-28T11:13:50.774Z,1021.23
2017-09-28T11:15:02.990Z,1021.25
2017-09-28T11:16:14.878Z,1021.24
2017-09-28T11:17:27.398Z,1021.18
2017-09-28T11:18:39.577Z,1021.18
2017-09-28T11:19:51.172Z,1021.11
2017-09-28T11:21:03.691Z,1021.14
2017-09-28T11:22:15.867Z,1021.13
2017-09-28T11:23:27.761Z,1021.09
2017-09-28T11:24:39.980Z,1021.12
2017-09-28T11:25:52.477Z,1021.08
2017-09-28T11:27:04.387Z,1021.08
2017-09-28T11:28:16.893Z,1021.09
2017-09-28T11:29:29.112Z,1021.15
2017-09-28T11:30:41.334Z,1021.09
2017-09-28T11:31:53.570Z,1021.13
2017-09-28T11:33:05.472Z,1021.1
2017-09-28T11:34:17.972Z,1021.1
2017-09-28T11:35:29.866Z,1021.06
2017-09-28T11:36:42.077Z,1021.01
2017-09-28T11:37:54.276Z,1021.05
2017-09-28T11:39:06.802Z,1021
2017-09-28T11:40:19.326Z,1021
2017-09-28T11:41:31.562Z,1021.02
2017-09-28T11:42:43.814Z,1020.99
2017-09-28T11:43:56.309Z,1020.98
2017-09-28T11:45:08.506Z,1020.96
2017-09-28T11:46:20.720Z,1020.96
2017-09-28T11:47:32.623Z,1020.99
2017-09-28T11:48:44.520Z,1020.99
2017-09-28T11:49:57.065Z,1021.01
2017-09-28T11:51:08.659Z,1021.03
2017-09-28T11:52:21.172Z,1021.02
2017-09-28T11:53:33.675Z,1021.01
2017-09-28T11:54:45.874Z,1020.98
2017-09-28T11:55:58.068Z,1020.92
2017-09-28T11:57:10.304Z,1020.98
2017-09-28T11:58:22.202Z,1020.94
2017-09-28T11:59:34.703Z,1020.95
2017-09-28T12:00:46.300Z,1020.89
2017-09-28T12:01:58.189Z,1020.9
2017-09-28T12:03:10.418Z,1020.85
2017-09-28T12:04:22.962Z,1020.92
2017-09-28T12:05:35.487Z,1020.86
2017-09-28T12:06:47.672Z,1020.88
2017-09-28T12:07:58.966Z,1020.85
2017-09-28T12:09:10.547Z,1020.87
2017-09-28T12:10:22.466Z,1020.9
2017-09-28T12:11:34.659Z,1020.94
2017-09-28T12:12:46.862Z,1021.02
2017-09-28T12:13:59.070Z,1021.03
2017-09-28T12:15:11.272Z,1021.05
2017-09-28T12:16:23.771Z,1021.07
2017-09-28T12:17:35.988Z,1021.08
2017-09-28T12:18:48.213Z,1021.08
2017-09-28T12:20:00.783Z,1021.13
2017-09-28T12:21:12.675Z,1021.09
2017-09-28T12:22:24.538Z,1021.08
2017-09-28T12:23:37.084Z,1021.14
2017-09-28T12:24:49.583Z,1021.1
2017-09-28T12:26:01.810Z,1021.11
2017-09-28T12:27:14.006Z,1021.08
2017-09-28T12:28:25.578Z,1021.11
2017-09-28T12:29:37.189Z,1021.07
2017-09-28T12:30:49.092Z,1021.11
2017-09-28T12:32:01.314Z,1021.06
2017-09-28T12:33:13.537Z,1021.14
2017-09-28T12:34:26.052Z,1021.14
2017-09-28T12:35:38.550Z,1021.14
2017-09-28T12:36:51.068Z,1021.12
2017-09-28T12:38:02.667Z,1021.15
2017-09-28T12:39:14.863Z,1021.2
2017-09-28T12:40:26.759Z,1021.18
2017-09-28T12:41:39.282Z,1021.15
2017-09-28T12:42:51.475Z,1021.18
2017-09-28T12:44:03.374Z,1021.17
2017-09-28T12:45:15.889Z,1021.16
2017-09-28T12:46:28.108Z,1021.16
2017-09-28T12:47:40.309Z,1021.18
2017-09-28T12:48:52.542Z,1021.17
2017-09-28T12:50:05.063Z,1021.17
2017-09-28T12:51:17.267Z,1021.15
2017-09-28T12:52:29.768Z,1021.1
2017-09-28T12:53:41.359Z,1021.08
2017-09-28T12:54:53.278Z,1021.04
2017-09-28T12:56:05.475Z,1021.04
2017-09-28T12:57:17.670Z,1021.06
2017-09-28T12:58:29.871Z,1021.05
2017-09-28T12:59:42.388Z,1021.08
2017-09-28T13:00:54.551Z,1021.06
2017-09-28T13:02:06.783Z,1021.1
2017-09-28T13:03:19.015Z,1021.14
2017-09-28T13:04:31.223Z,1021.15
2017-09-28T13:05:43.118Z,1021.14
2017-09-28T13:06:55.027Z,1021.16
2017-09-28T13:08:07.250Z,1021.13
2017-09-28T13:09:18.555Z,1021.15
2017-09-28T13:10:31.120Z,1021.17
2017-09-28T13:11:43.320Z,1021.14
2017-09-28T13:12:55.213Z,1021.09
2017-09-28T13:14:07.111Z,1021.16
2017-09-28T13:15:19.321Z,1021.1
2017-09-28T13:16:31.826Z,1021.11
2017-09-28T13:17:44.328Z,1021.08
2017-09-28T13:18:56.218Z,1021.07
2017-09-28T13:20:08.758Z,1021.09
2017-09-28T13:21:21.285Z,1021.06
2017-09-28T13:22:33.807Z,1021.13
2017-09-28T13:23:45.701Z,1021.03
2017-09-28T13:24:58.212Z,1021.01
2017-09-28T13:26:09.820Z,1021.06
2017-09-28T13:27:22.037Z,1021.06
2017-09-28T13:28:34.563Z,1021.05
2017-09-28T13:29:47.059Z,1021.08
2017-09-28T13:30:59.574Z,1021.01
2017-09-28T13:32:11.793Z,1020.98
2017-09-28T13:33:24.292Z,1021.03
2017-09-28T13:34:36.803Z,1021
2017-09-28T13:35:49.358Z,1021.01
2017-09-28T13:37:01.568Z,1021
2017-09-28T13:38:13.797Z,1021.06
2017-09-28T13:39:26.293Z,1021.1
2017-09-28T13:40:38.191Z,1021.09
2017-09-28T13:41:50.386Z,1021.07
2017-09-28T13:43:02.921Z,1021.07
2017-09-28T13:44:15.108Z,1021.07
2017-09-28T13:45:27.322Z,1021.04
2017-09-28T13:46:39.545Z,1021.02
2017-09-28T13:47:51.732Z,1021.07
2017-09-28T13:49:03.959Z,1021.03
2017-09-28T13:50:15.848Z,1020.98
2017-09-28T13:51:27.442Z,1021.05
2017-09-28T13:52:39.940Z,1021.02
2017-09-28T13:53:52.159Z,1021.03
2017-09-28T13:55:04.679Z,1021.04
2017-09-28T13:56:17.184Z,1021.05
2017-09-28T13:57:29.710Z,1021.02
2017-09-28T13:58:41.952Z,1021.03
2017-09-28T13:59:54.145Z,1021.05
2017-09-28T14:01:06.056Z,1021.04
2017-09-28T14:02:17.938Z,1021.01
2017-09-28T14:03:29.857Z,1021.05
2017-09-28T14:04:42.382Z,1021.02
2017-09-28T14:05:53.990Z,1021.06
2017-09-28T14:07:05.874Z,1021.03
2017-09-28T14:08:18.064Z,1021.04
2017-09-28T14:09:30.286Z,1021.04
2017-09-28T14:10:42.782Z,1021.01
2017-09-28T14:11:54.695Z,1020.99
2017-09-28T14:13:06.300Z,1020.97
2017-09-28T14:14:18.793Z,1021.02
2017-09-28T14:15:31.293Z,1021.02
2017-09-28T14:16:43.510Z,1021.01
2017-09-28T14:17:55.410Z,1021.01
2017-09-28T14:19:07.630Z,1021.01
2017-09-28T14:20:20.063Z,1021.04
2017-09-28T14:21:32.283Z,1021.04
2017-09-28T14:22:43.863Z,1021.02
2017-09-28T14:23:56.059Z,1021.02
2017-09-28T14:25:08.258Z,1021.04
2017-09-28T14:26:20.776Z,1021.08
2017-09-28T14:27:32.976Z,1021.07
2017-09-28T14:28:45.193Z,1021.1
2017-09-28T14:29:57.412Z,1021.07
2017-09-28T14:31:09.914Z,1021.08
2017-09-28T14:32:22.444Z,1021.08
2017-09-28T14:33:34.393Z,1021.05
2017-09-28T14:34:46.897Z,1021.07
2017-09-28T14:35:59.415Z,1021.09
2017-09-28T14:37:11.610Z,1021.03